sensor_id;sensor_type;location;lat;lon;timestamp;P1;durP1;ratioP1;P2;durP2;ratioP2
6999;SDS011;3540;53.242;10.408;2023-05-10T00:00:07;8.30;;;3.33;;
6999;SDS011;3540;53.242;10.408;2023-05-10T00:02:34;4.13;;;3.27;;
6999;SDS011;3540;53.242;10.408;2023-05-10T00:05:00;4.57;;;3.30;;
6999;SDS011;3540;53.242;10.408;2023-05-10T00:07:26;3.80;;;3.10;;
6999;SDS011;3540;53.242;10.408;2023-05-10T00:09:51;6.23;;;3.00;;
6999;SDS011;3540;53.242;10.408;2023-05-10T00:12:17;4.17;;;3.27;;
6999;SDS011;3540;53.242;10.408;2023-05-10T00:14:42;4.90;;;3.10;;
6999;SDS011;3540;53.242;10.408;2023-05-10T00:17:08;5.10;;;3.27;;
6999;SDS011;3540;53.242;10.408;2023-05-10T00:19:34;4.10;;;3.20;;
6999;SDS011;3540;53.242;10.408;2023-05-10T00:21:59;6.13;;;3.67;;
6999;SDS011;3540;53.242;10.408;2023-05-10T00:24:25;4.87;;;3.00;;
6999;SDS011;3540;53.242;10.408;2023-05-10T00:26:51;5.97;;;3.00;;
6999;SDS011;3540;53.242;10.408;2023-05-10T00:29:16;6.50;;;2.93;;
6999;SDS011;3540;53.242;10.408;2023-05-10T00:31:42;7.10;;;3.27;;
6999;SDS011;3540;53.242;10.408;2023-05-10T00:34:08;8.90;;;3.30;;
6999;SDS011;3540;53.242;10.408;2023-05-10T00:36:33;6.73;;;3.10;;
6999;SDS011;3540;53.242;10.408;2023-05-10T00:38:59;7.70;;;3.30;;
6999;SDS011;3540;53.242;10.408;2023-05-10T00:41:25;4.20;;;3.10;;
6999;SDS011;3540;53.242;10.408;2023-05-10T00:43:51;5.50;;;3.47;;
6999;SDS011;3540;53.242;10.408;2023-05-10T00:46:16;5.00;;;3.30;;
6999;SDS011;3540;53.242;10.408;2023-05-10T00:48:42;8.70;;;2.90;;
6999;SDS011;3540;53.242;10.408;2023-05-10T00:51:12;5.17;;;3.30;;
6999;SDS011;3540;53.242;10.408;2023-05-10T00:53:38;7.73;;;3.77;;
6999;SDS011;3540;53.242;10.408;2023-05-10T00:56:04;4.60;;;3.50;;
6999;SDS011;3540;53.242;10.408;2023-05-10T00:58:30;5.33;;;2.97;;
6999;SDS011;3540;53.242;10.408;2023-05-10T01:00:56;5.93;;;3.07;;
6999;SDS011;3540;53.242;10.408;2023-05-10T01:03:22;5.27;;;3.30;;
6999;SDS011;3540;53.242;10.408;2023-05-10T01:05:48;5.87;;;3.40;;
6999;SDS011;3540;53.242;10.408;2023-05-10T01:08:14;6.77;;;3.40;;
6999;SDS011;3540;53.242;10.408;2023-05-10T01:10:40;7.00;;;3.30;;
6999;SDS011;3540;53.242;10.408;2023-05-10T01:13:06;10.40;;;3.30;;
6999;SDS011;3540;53.242;10.408;2023-05-10T01:15:32;6.73;;;3.30;;
6999;SDS011;3540;53.242;10.408;2023-05-10T01:17:58;7.50;;;3.73;;
6999;SDS011;3540;53.242;10.408;2023-05-10T01:20:25;3.50;;;3.07;;
6999;SDS011;3540;53.242;10.408;2023-05-10T01:23:10;9.33;;;3.53;;
6999;SDS011;3540;53.242;10.408;2023-05-10T01:34:23;10.77;;;4.20;;
6999;SDS011;3540;53.242;10.408;2023-05-10T01:36:58;7.93;;;3.30;;
6999;SDS011;3540;53.242;10.408;2023-05-10T01:39:44;6.93;;;3.30;;
6999;SDS011;3540;53.242;10.408;2023-05-10T01:42:23;5.70;;;3.20;;
6999;SDS011;3540;53.242;10.408;2023-05-10T01:49:57;4.37;;;3.10;;
6999;SDS011;3540;53.242;10.408;2023-05-10T01:52:27;9.03;;;3.47;;
6999;SDS011;3540;53.242;10.408;2023-05-10T01:55:11;6.37;;;3.60;;
6999;SDS011;3540;53.242;10.408;2023-05-10T01:57:42;11.83;;;3.80;;
6999;SDS011;3540;53.242;10.408;2023-05-10T02:00:09;7.70;;;3.40;;
6999;SDS011;3540;53.242;10.408;2023-05-10T02:02:37;4.50;;;3.40;;
6999;SDS011;3540;53.242;10.408;2023-05-10T02:05:07;4.87;;;3.33;;
6999;SDS011;3540;53.242;10.408;2023-05-10T02:07:34;8.33;;;3.50;;
6999;SDS011;3540;53.242;10.408;2023-05-10T02:10:02;4.40;;;3.50;;
6999;SDS011;3540;53.242;10.408;2023-05-10T02:12:31;9.73;;;3.40;;
6999;SDS011;3540;53.242;10.408;2023-05-10T02:15:00;10.80;;;3.60;;
6999;SDS011;3540;53.242;10.408;2023-05-10T02:17:28;8.23;;;3.60;;
6999;SDS011;3540;53.242;10.408;2023-05-10T02:19:56;9.90;;;3.70;;
6999;SDS011;3540;53.242;10.408;2023-05-10T02:22:25;7.97;;;3.30;;
6999;SDS011;3540;53.242;10.408;2023-05-10T02:24:52;4.40;;;3.40;;
6999;SDS011;3540;53.242;10.408;2023-05-10T02:27:20;4.50;;;3.13;;
6999;SDS011;3540;53.242;10.408;2023-05-10T02:29:48;5.40;;;3.40;;
6999;SDS011;3540;53.242;10.408;2023-05-10T02:32:16;5.43;;;3.43;;
6999;SDS011;3540;53.242;10.408;2023-05-10T02:34:43;7.30;;;3.80;;
6999;SDS011;3540;53.242;10.408;2023-05-10T02:37:14;6.73;;;3.93;;
6999;SDS011;3540;53.242;10.408;2023-05-10T02:39:43;5.50;;;3.60;;
6999;SDS011;3540;53.242;10.408;2023-05-10T02:42:14;5.53;;;3.70;;
6999;SDS011;3540;53.242;10.408;2023-05-10T02:44:42;5.67;;;3.70;;
6999;SDS011;3540;53.242;10.408;2023-05-10T02:47:10;7.53;;;3.80;;
6999;SDS011;3540;53.242;10.408;2023-05-10T02:49:36;5.83;;;3.47;;
6999;SDS011;3540;53.242;10.408;2023-05-10T02:52:02;6.57;;;3.57;;
6999;SDS011;3540;53.242;10.408;2023-05-10T02:54:32;6.00;;;3.40;;
6999;SDS011;3540;53.242;10.408;2023-05-10T02:57:03;8.53;;;3.60;;
6999;SDS011;3540;53.242;10.408;2023-05-10T02:59:30;5.73;;;3.17;;
6999;SDS011;3540;53.242;10.408;2023-05-10T03:01:57;6.13;;;3.50;;
6999;SDS011;3540;53.242;10.408;2023-05-10T03:04:25;9.27;;;3.50;;
6999;SDS011;3540;53.242;10.408;2023-05-10T03:06:50;6.67;;;3.23;;
6999;SDS011;3540;53.242;10.408;2023-05-10T03:09:16;6.43;;;3.80;;
6999;SDS011;3540;53.242;10.408;2023-05-10T03:14:39;6.10;;;3.47;;
6999;SDS011;3540;53.242;10.408;2023-05-10T03:17:22;5.47;;;3.67;;
6999;SDS011;3540;53.242;10.408;2023-05-10T03:19:55;5.67;;;3.67;;
6999;SDS011;3540;53.242;10.408;2023-05-10T03:22:32;6.10;;;3.57;;
6999;SDS011;3540;53.242;10.408;2023-05-10T03:25:04;5.50;;;3.67;;
6999;SDS011;3540;53.242;10.408;2023-05-10T03:27:31;4.10;;;3.60;;
6999;SDS011;3540;53.242;10.408;2023-05-10T03:29:58;7.03;;;3.50;;
6999;SDS011;3540;53.242;10.408;2023-05-10T03:32:26;9.40;;;3.97;;
6999;SDS011;3540;53.242;10.408;2023-05-10T03:34:53;6.00;;;3.30;;
6999;SDS011;3540;53.242;10.408;2023-05-10T03:37:19;7.73;;;3.60;;
6999;SDS011;3540;53.242;10.408;2023-05-10T03:39:44;8.57;;;4.00;;
6999;SDS011;3540;53.242;10.408;2023-05-10T03:42:10;4.60;;;3.57;;
6999;SDS011;3540;53.242;10.408;2023-05-10T03:44:37;6.73;;;3.60;;
6999;SDS011;3540;53.242;10.408;2023-05-10T03:47:03;5.60;;;3.60;;
6999;SDS011;3540;53.242;10.408;2023-05-10T03:49:29;6.77;;;3.97;;
6999;SDS011;3540;53.242;10.408;2023-05-10T03:51:54;4.17;;;3.70;;
6999;SDS011;3540;53.242;10.408;2023-05-10T03:54:20;7.07;;;3.60;;
6999;SDS011;3540;53.242;10.408;2023-05-10T03:56:46;6.27;;;3.73;;
6999;SDS011;3540;53.242;10.408;2023-05-10T03:59:12;5.27;;;3.80;;
6999;SDS011;3540;53.242;10.408;2023-05-10T04:01:38;7.73;;;3.60;;
6999;SDS011;3540;53.242;10.408;2023-05-10T04:04:04;6.63;;;3.80;;
6999;SDS011;3540;53.242;10.408;2023-05-10T04:06:30;3.93;;;3.40;;
6999;SDS011;3540;53.242;10.408;2023-05-10T04:08:55;7.23;;;3.80;;
6999;SDS011;3540;53.242;10.408;2023-05-10T04:11:24;9.93;;;4.07;;
6999;SDS011;3540;53.242;10.408;2023-05-10T04:13:53;7.20;;;4.00;;
6999;SDS011;3540;53.242;10.408;2023-05-10T04:16:18;5.93;;;3.33;;
6999;SDS011;3540;53.242;10.408;2023-05-10T04:18:44;5.47;;;3.63;;
6999;SDS011;3540;53.242;10.408;2023-05-10T04:21:13;4.23;;;3.80;;
6999;SDS011;3540;53.242;10.408;2023-05-10T04:23:39;6.30;;;3.23;;
6999;SDS011;3540;53.242;10.408;2023-05-10T04:26:05;5.00;;;3.57;;
6999;SDS011;3540;53.242;10.408;2023-05-10T04:28:30;8.20;;;3.80;;
6999;SDS011;3540;53.242;10.408;2023-05-10T04:31:03;5.57;;;3.97;;
6999;SDS011;3540;53.242;10.408;2023-05-10T04:33:29;6.83;;;3.57;;
6999;SDS011;3540;53.242;10.408;2023-05-10T04:35:55;7.13;;;3.70;;
6999;SDS011;3540;53.242;10.408;2023-05-10T04:38:20;6.90;;;3.50;;
6999;SDS011;3540;53.242;10.408;2023-05-10T04:40:46;5.17;;;3.77;;
6999;SDS011;3540;53.242;10.408;2023-05-10T04:43:12;6.43;;;3.60;;
6999;SDS011;3540;53.242;10.408;2023-05-10T04:45:38;6.63;;;4.93;;
6999;SDS011;3540;53.242;10.408;2023-05-10T04:48:03;7.13;;;4.17;;
6999;SDS011;3540;53.242;10.408;2023-05-10T04:50:29;6.17;;;3.60;;
6999;SDS011;3540;53.242;10.408;2023-05-10T04:52:55;8.30;;;3.70;;
6999;SDS011;3540;53.242;10.408;2023-05-10T04:55:20;4.30;;;3.40;;
6999;SDS011;3540;53.242;10.408;2023-05-10T04:57:46;6.40;;;3.43;;
6999;SDS011;3540;53.242;10.408;2023-05-10T05:00:12;5.27;;;4.00;;
6999;SDS011;3540;53.242;10.408;2023-05-10T05:02:38;6.90;;;3.53;;
6999;SDS011;3540;53.242;10.408;2023-05-10T05:05:07;6.57;;;3.60;;
6999;SDS011;3540;53.242;10.408;2023-05-10T05:07:32;6.43;;;3.47;;
6999;SDS011;3540;53.242;10.408;2023-05-10T05:09:58;8.97;;;3.70;;
6999;SDS011;3540;53.242;10.408;2023-05-10T05:12:24;4.90;;;3.50;;
6999;SDS011;3540;53.242;10.408;2023-05-10T05:14:50;5.33;;;3.60;;
6999;SDS011;3540;53.242;10.408;2023-05-10T05:17:15;6.50;;;3.60;;
6999;SDS011;3540;53.242;10.408;2023-05-10T05:19:41;6.50;;;3.70;;
6999;SDS011;3540;53.242;10.408;2023-05-10T05:22:07;6.60;;;3.57;;
6999;SDS011;3540;53.242;10.408;2023-05-10T05:24:35;4.10;;;3.27;;
6999;SDS011;3540;53.242;10.408;2023-05-10T05:27:04;5.07;;;3.57;;
6999;SDS011;3540;53.242;10.408;2023-05-10T05:29:30;4.90;;;3.67;;
6999;SDS011;3540;53.242;10.408;2023-05-10T05:31:56;4.33;;;3.40;;
6999;SDS011;3540;53.242;10.408;2023-05-10T05:34:22;5.80;;;3.67;;
6999;SDS011;3540;53.242;10.408;2023-05-10T05:36:48;4.23;;;3.43;;
6999;SDS011;3540;53.242;10.408;2023-05-10T05:39:13;7.63;;;3.63;;
6999;SDS011;3540;53.242;10.408;2023-05-10T05:41:39;6.07;;;3.90;;
6999;SDS011;3540;53.242;10.408;2023-05-10T05:44:04;6.77;;;3.47;;
6999;SDS011;3540;53.242;10.408;2023-05-10T05:46:30;4.10;;;3.53;;
6999;SDS011;3540;53.242;10.408;2023-05-10T05:48:56;10.77;;;3.60;;
6999;SDS011;3540;53.242;10.408;2023-05-10T05:51:21;6.37;;;3.87;;
6999;SDS011;3540;53.242;10.408;2023-05-10T05:53:47;5.27;;;3.43;;
6999;SDS011;3540;53.242;10.408;2023-05-10T05:56:13;6.80;;;4.07;;
6999;SDS011;3540;53.242;10.408;2023-05-10T05:58:38;3.97;;;3.50;;
6999;SDS011;3540;53.242;10.408;2023-05-10T06:01:04;6.40;;;3.73;;
6999;SDS011;3540;53.242;10.408;2023-05-10T06:03:30;6.57;;;3.47;;
6999;SDS011;3540;53.242;10.408;2023-05-10T06:05:55;4.73;;;3.33;;
6999;SDS011;3540;53.242;10.408;2023-05-10T06:08:21;5.30;;;3.43;;
6999;SDS011;3540;53.242;10.408;2023-05-10T06:10:47;6.30;;;3.63;;
6999;SDS011;3540;53.242;10.408;2023-05-10T06:13:13;9.37;;;3.60;;
6999;SDS011;3540;53.242;10.408;2023-05-10T06:15:38;7.27;;;3.27;;
6999;SDS011;3540;53.242;10.408;2023-05-10T06:18:04;11.43;;;3.27;;
6999;SDS011;3540;53.242;10.408;2023-05-10T06:20:31;5.37;;;3.60;;
6999;SDS011;3540;53.242;10.408;2023-05-10T06:22:57;5.87;;;3.40;;
6999;SDS011;3540;53.242;10.408;2023-05-10T06:25:23;6.13;;;3.20;;
6999;SDS011;3540;53.242;10.408;2023-05-10T06:27:48;5.43;;;3.20;;
6999;SDS011;3540;53.242;10.408;2023-05-10T06:30:14;4.73;;;3.73;;
6999;SDS011;3540;53.242;10.408;2023-05-10T06:32:40;4.63;;;3.40;;
6999;SDS011;3540;53.242;10.408;2023-05-10T06:35:06;5.47;;;3.47;;
6999;SDS011;3540;53.242;10.408;2023-05-10T06:37:32;8.43;;;4.00;;
6999;SDS011;3540;53.242;10.408;2023-05-10T06:39:59;6.03;;;3.60;;
6999;SDS011;3540;53.242;10.408;2023-05-10T06:42:25;10.00;;;3.90;;
6999;SDS011;3540;53.242;10.408;2023-05-10T06:44:52;5.10;;;3.30;;
6999;SDS011;3540;53.242;10.408;2023-05-10T06:47:18;4.10;;;3.20;;
6999;SDS011;3540;53.242;10.408;2023-05-10T06:49:43;5.50;;;3.40;;
6999;SDS011;3540;53.242;10.408;2023-05-10T06:52:09;4.63;;;3.50;;
6999;SDS011;3540;53.242;10.408;2023-05-10T06:54:35;5.40;;;4.17;;
6999;SDS011;3540;53.242;10.408;2023-05-10T06:57:00;5.27;;;3.60;;
6999;SDS011;3540;53.242;10.408;2023-05-10T06:59:28;8.40;;;4.37;;
6999;SDS011;3540;53.242;10.408;2023-05-10T07:01:53;7.97;;;3.60;;
6999;SDS011;3540;53.242;10.408;2023-05-10T07:04:19;4.97;;;3.47;;
6999;SDS011;3540;53.242;10.408;2023-05-10T07:06:44;8.83;;;3.47;;
6999;SDS011;3540;53.242;10.408;2023-05-10T07:09:11;16.80;;;4.27;;
6999;SDS011;3540;53.242;10.408;2023-05-10T07:11:38;3.73;;;3.40;;
6999;SDS011;3540;53.242;10.408;2023-05-10T07:14:03;7.17;;;3.40;;
6999;SDS011;3540;53.242;10.408;2023-05-10T07:16:30;7.00;;;3.10;;
6999;SDS011;3540;53.242;10.408;2023-05-10T07:18:55;7.30;;;3.40;;
6999;SDS011;3540;53.242;10.408;2023-05-10T07:21:21;5.63;;;3.50;;
6999;SDS011;3540;53.242;10.408;2023-05-10T07:23:48;5.57;;;3.60;;
6999;SDS011;3540;53.242;10.408;2023-05-10T07:26:15;3.90;;;3.50;;
6999;SDS011;3540;53.242;10.408;2023-05-10T07:28:41;10.40;;;4.03;;
6999;SDS011;3540;53.242;10.408;2023-05-10T07:31:06;10.33;;;3.90;;
6999;SDS011;3540;53.242;10.408;2023-05-10T07:33:32;6.03;;;3.53;;
6999;SDS011;3540;53.242;10.408;2023-05-10T07:35:58;4.13;;;3.30;;
6999;SDS011;3540;53.242;10.408;2023-05-10T07:38:23;4.03;;;3.50;;
6999;SDS011;3540;53.242;10.408;2023-05-10T07:40:51;6.53;;;3.53;;
6999;SDS011;3540;53.242;10.408;2023-05-10T07:43:23;9.23;;;3.67;;
6999;SDS011;3540;53.242;10.408;2023-05-10T07:45:48;6.20;;;3.77;;
6999;SDS011;3540;53.242;10.408;2023-05-10T07:48:14;6.73;;;3.60;;
6999;SDS011;3540;53.242;10.408;2023-05-10T07:50:39;5.33;;;3.60;;
6999;SDS011;3540;53.242;10.408;2023-05-10T07:53:05;6.07;;;3.60;;
6999;SDS011;3540;53.242;10.408;2023-05-10T07:55:31;6.87;;;3.73;;
6999;SDS011;3540;53.242;10.408;2023-05-10T07:57:57;22.47;;;5.43;;
6999;SDS011;3540;53.242;10.408;2023-05-10T08:00:22;6.70;;;4.00;;
6999;SDS011;3540;53.242;10.408;2023-05-10T08:02:48;11.53;;;4.57;;
6999;SDS011;3540;53.242;10.408;2023-05-10T08:05:13;5.20;;;3.60;;
6999;SDS011;3540;53.242;10.408;2023-05-10T08:07:39;8.20;;;3.73;;
6999;SDS011;3540;53.242;10.408;2023-05-10T08:10:05;9.20;;;3.63;;
6999;SDS011;3540;53.242;10.408;2023-05-10T08:12:32;6.83;;;3.70;;
6999;SDS011;3540;53.242;10.408;2023-05-10T08:14:57;6.00;;;3.70;;
6999;SDS011;3540;53.242;10.408;2023-05-10T08:17:23;8.50;;;4.30;;
6999;SDS011;3540;53.242;10.408;2023-05-10T08:19:49;4.17;;;3.33;;
6999;SDS011;3540;53.242;10.408;2023-05-10T08:22:14;5.53;;;3.63;;
6999;SDS011;3540;53.242;10.408;2023-05-10T08:24:40;7.20;;;4.60;;
6999;SDS011;3540;53.242;10.408;2023-05-10T08:27:07;6.43;;;3.60;;
6999;SDS011;3540;53.242;10.408;2023-05-10T08:29:33;11.30;;;4.97;;
6999;SDS011;3540;53.242;10.408;2023-05-10T08:31:59;6.80;;;3.47;;
6999;SDS011;3540;53.242;10.408;2023-05-10T08:34:26;4.93;;;3.70;;
6999;SDS011;3540;53.242;10.408;2023-05-10T08:36:52;7.70;;;4.03;;
6999;SDS011;3540;53.242;10.408;2023-05-10T08:39:17;4.97;;;4.10;;
6999;SDS011;3540;53.242;10.408;2023-05-10T08:41:43;5.57;;;4.87;;
6999;SDS011;3540;53.242;10.408;2023-05-10T08:44:11;9.50;;;4.00;;
6999;SDS011;3540;53.242;10.408;2023-05-10T08:46:37;5.57;;;4.27;;
6999;SDS011;3540;53.242;10.408;2023-05-10T08:49:08;8.77;;;3.83;;
6999;SDS011;3540;53.242;10.408;2023-05-10T08:51:38;9.57;;;4.00;;
6999;SDS011;3540;53.242;10.408;2023-05-10T08:54:08;6.53;;;4.13;;
6999;SDS011;3540;53.242;10.408;2023-05-10T08:56:35;7.63;;;4.20;;
6999;SDS011;3540;53.242;10.408;2023-05-10T08:59:01;4.27;;;3.67;;
6999;SDS011;3540;53.242;10.408;2023-05-10T09:01:27;4.10;;;3.70;;
6999;SDS011;3540;53.242;10.408;2023-05-10T09:03:56;9.27;;;3.80;;
6999;SDS011;3540;53.242;10.408;2023-05-10T09:06:22;4.90;;;4.40;;
6999;SDS011;3540;53.242;10.408;2023-05-10T09:08:49;7.40;;;4.13;;
6999;SDS011;3540;53.242;10.408;2023-05-10T09:11:15;5.07;;;4.20;;
6999;SDS011;3540;53.242;10.408;2023-05-10T09:13:42;7.70;;;4.20;;
6999;SDS011;3540;53.242;10.408;2023-05-10T09:16:08;11.57;;;4.53;;
6999;SDS011;3540;53.242;10.408;2023-05-10T09:18:34;10.33;;;4.50;;
6999;SDS011;3540;53.242;10.408;2023-05-10T09:21:00;7.43;;;4.13;;
6999;SDS011;3540;53.242;10.408;2023-05-10T09:23:25;10.43;;;4.67;;
6999;SDS011;3540;53.242;10.408;2023-05-10T09:26:06;12.40;;;4.47;;
6999;SDS011;3540;53.242;10.408;2023-05-10T09:28:33;14.93;;;8.03;;
6999;SDS011;3540;53.242;10.408;2023-05-10T09:31:14;8.17;;;4.57;;
6999;SDS011;3540;53.242;10.408;2023-05-10T09:33:43;5.30;;;4.40;;
6999;SDS011;3540;53.242;10.408;2023-05-10T09:36:13;6.43;;;4.17;;
6999;SDS011;3540;53.242;10.408;2023-05-10T09:38:46;14.20;;;4.97;;
6999;SDS011;3540;53.242;10.408;2023-05-10T09:41:22;4.53;;;4.00;;
6999;SDS011;3540;53.242;10.408;2023-05-10T09:43:49;10.63;;;4.50;;
6999;SDS011;3540;53.242;10.408;2023-05-10T09:46:15;6.37;;;3.90;;
6999;SDS011;3540;53.242;10.408;2023-05-10T09:48:42;9.40;;;4.27;;
6999;SDS011;3540;53.242;10.408;2023-05-10T09:51:09;6.70;;;4.50;;
6999;SDS011;3540;53.242;10.408;2023-05-10T09:53:35;8.20;;;4.87;;
6999;SDS011;3540;53.242;10.408;2023-05-10T09:56:01;8.87;;;4.10;;
6999;SDS011;3540;53.242;10.408;2023-05-10T09:58:27;8.90;;;4.40;;
6999;SDS011;3540;53.242;10.408;2023-05-10T10:00:52;6.77;;;4.27;;
6999;SDS011;3540;53.242;10.408;2023-05-10T10:03:19;6.17;;;4.30;;
6999;SDS011;3540;53.242;10.408;2023-05-10T10:05:46;6.10;;;4.20;;
6999;SDS011;3540;53.242;10.408;2023-05-10T10:08:13;8.53;;;5.10;;
6999;SDS011;3540;53.242;10.408;2023-05-10T10:10:40;8.80;;;5.30;;
6999;SDS011;3540;53.242;10.408;2023-05-10T10:13:06;9.03;;;5.37;;
6999;SDS011;3540;53.242;10.408;2023-05-10T10:15:33;11.83;;;4.80;;
6999;SDS011;3540;53.242;10.408;2023-05-10T10:17:59;5.00;;;4.50;;
6999;SDS011;3540;53.242;10.408;2023-05-10T10:20:25;6.43;;;5.00;;
6999;SDS011;3540;53.242;10.408;2023-05-10T10:22:52;5.67;;;4.80;;
6999;SDS011;3540;53.242;10.408;2023-05-10T10:25:18;5.73;;;5.00;;
6999;SDS011;3540;53.242;10.408;2023-05-10T10:35:21;5.73;;;5.17;;
6999;SDS011;3540;53.242;10.408;2023-05-10T10:37:47;11.63;;;6.07;;
6999;SDS011;3540;53.242;10.408;2023-05-10T10:42:51;9.97;;;6.17;;
6999;SDS011;3540;53.242;10.408;2023-05-10T10:45:18;6.93;;;6.23;;
6999;SDS011;3540;53.242;10.408;2023-05-10T10:47:45;8.23;;;6.20;;
6999;SDS011;3540;53.242;10.408;2023-05-10T10:50:10;7.40;;;6.63;;
6999;SDS011;3540;53.242;10.408;2023-05-10T10:52:41;9.80;;;6.30;;
6999;SDS011;3540;53.242;10.408;2023-05-10T10:55:12;8.97;;;6.27;;
6999;SDS011;3540;53.242;10.408;2023-05-10T11:02:56;10.27;;;6.87;;
6999;SDS011;3540;53.242;10.408;2023-05-10T11:07:54;13.67;;;7.10;;
6999;SDS011;3540;53.242;10.408;2023-05-10T11:10:22;8.27;;;7.27;;
6999;SDS011;3540;53.242;10.408;2023-05-10T11:12:52;9.10;;;7.17;;
6999;SDS011;3540;53.242;10.408;2023-05-10T11:15:48;7.83;;;7.00;;
6999;SDS011;3540;53.242;10.408;2023-05-10T11:23:20;9.27;;;6.27;;
6999;SDS011;3540;53.242;10.408;2023-05-10T11:25:46;7.63;;;6.77;;
6999;SDS011;3540;53.242;10.408;2023-05-10T11:28:13;8.00;;;6.50;;
6999;SDS011;3540;53.242;10.408;2023-05-10T11:30:40;8.90;;;6.80;;
6999;SDS011;3540;53.242;10.408;2023-05-10T11:33:07;7.80;;;6.77;;
6999;SDS011;3540;53.242;10.408;2023-05-10T11:35:37;9.37;;;6.87;;
6999;SDS011;3540;53.242;10.408;2023-05-10T11:38:09;8.43;;;7.37;;
6999;SDS011;3540;53.242;10.408;2023-05-10T11:40:36;12.40;;;7.70;;
6999;SDS011;3540;53.242;10.408;2023-05-10T11:43:03;10.73;;;7.27;;
6999;SDS011;3540;53.242;10.408;2023-05-10T11:45:32;8.17;;;7.30;;
6999;SDS011;3540;53.242;10.408;2023-05-10T11:47:58;8.97;;;6.33;;
6999;SDS011;3540;53.242;10.408;2023-05-10T11:50:24;8.17;;;7.10;;
6999;SDS011;3540;53.242;10.408;2023-05-10T11:52:54;10.30;;;7.40;;
6999;SDS011;3540;53.242;10.408;2023-05-10T11:55:21;7.43;;;6.73;;
6999;SDS011;3540;53.242;10.408;2023-05-10T11:57:47;8.33;;;7.07;;
6999;SDS011;3540;53.242;10.408;2023-05-10T12:00:16;8.40;;;7.60;;
6999;SDS011;3540;53.242;10.408;2023-05-10T12:02:41;7.83;;;7.03;;
6999;SDS011;3540;53.242;10.408;2023-05-10T12:05:08;9.77;;;7.57;;
6999;SDS011;3540;53.242;10.408;2023-05-10T12:07:34;7.93;;;7.17;;
6999;SDS011;3540;53.242;10.408;2023-05-10T12:10:07;8.73;;;7.60;;
6999;SDS011;3540;53.242;10.408;2023-05-10T12:12:40;9.90;;;7.37;;
6999;SDS011;3540;53.242;10.408;2023-05-10T12:15:10;7.97;;;7.23;;
6999;SDS011;3540;53.242;10.408;2023-05-10T12:17:38;8.70;;;6.67;;
6999;SDS011;3540;53.242;10.408;2023-05-10T12:20:15;8.40;;;6.87;;
6999;SDS011;3540;53.242;10.408;2023-05-10T12:22:49;7.80;;;7.00;;
6999;SDS011;3540;53.242;10.408;2023-05-10T12:25:14;8.27;;;6.90;;
6999;SDS011;3540;53.242;10.408;2023-05-10T12:27:41;7.77;;;7.07;;
6999;SDS011;3540;53.242;10.408;2023-05-10T12:30:12;9.60;;;7.33;;
6999;SDS011;3540;53.242;10.408;2023-05-10T12:32:43;8.53;;;6.87;;
6999;SDS011;3540;53.242;10.408;2023-05-10T12:35:09;7.73;;;7.03;;
6999;SDS011;3540;53.242;10.408;2023-05-10T12:37:35;7.97;;;7.17;;
6999;SDS011;3540;53.242;10.408;2023-05-10T12:40:05;7.73;;;6.93;;
6999;SDS011;3540;53.242;10.408;2023-05-10T12:42:35;7.37;;;6.67;;
6999;SDS011;3540;53.242;10.408;2023-05-10T12:45:03;9.10;;;7.00;;
6999;SDS011;3540;53.242;10.408;2023-05-10T12:47:30;7.30;;;6.60;;
6999;SDS011;3540;53.242;10.408;2023-05-10T12:49:56;7.70;;;6.60;;
6999;SDS011;3540;53.242;10.408;2023-05-10T12:52:22;7.47;;;6.70;;
6999;SDS011;3540;53.242;10.408;2023-05-10T12:54:48;7.60;;;6.80;;
6999;SDS011;3540;53.242;10.408;2023-05-10T12:57:14;8.50;;;7.07;;
6999;SDS011;3540;53.242;10.408;2023-05-10T12:59:39;8.00;;;7.20;;
6999;SDS011;3540;53.242;10.408;2023-05-10T13:02:05;8.53;;;7.57;;
6999;SDS011;3540;53.242;10.408;2023-05-10T13:04:32;8.17;;;7.37;;
6999;SDS011;3540;53.242;10.408;2023-05-10T13:06:57;7.37;;;6.67;;
6999;SDS011;3540;53.242;10.408;2023-05-10T13:09:26;7.63;;;6.93;;
6999;SDS011;3540;53.242;10.408;2023-05-10T13:11:54;7.77;;;6.57;;
6999;SDS011;3540;53.242;10.408;2023-05-10T13:14:20;6.67;;;6.00;;
6999;SDS011;3540;53.242;10.408;2023-05-10T13:16:46;9.20;;;6.07;;
6999;SDS011;3540;53.242;10.408;2023-05-10T13:19:12;8.90;;;6.43;;
6999;SDS011;3540;53.242;10.408;2023-05-10T13:21:38;6.30;;;5.80;;
6999;SDS011;3540;53.242;10.408;2023-05-10T13:24:06;6.80;;;6.10;;
6999;SDS011;3540;53.242;10.408;2023-05-10T13:26:32;7.20;;;6.50;;
6999;SDS011;3540;53.242;10.408;2023-05-10T13:28:57;6.00;;;5.40;;
6999;SDS011;3540;53.242;10.408;2023-05-10T13:31:23;6.47;;;5.60;;
6999;SDS011;3540;53.242;10.408;2023-05-10T13:33:49;5.43;;;4.90;;
6999;SDS011;3540;53.242;10.408;2023-05-10T13:36:15;5.80;;;5.27;;
6999;SDS011;3540;53.242;10.408;2023-05-10T13:38:40;5.77;;;5.10;;
6999;SDS011;3540;53.242;10.408;2023-05-10T13:41:06;5.67;;;5.03;;
6999;SDS011;3540;53.242;10.408;2023-05-10T13:43:31;6.03;;;4.87;;
6999;SDS011;3540;53.242;10.408;2023-05-10T13:45:57;5.80;;;4.50;;
6999;SDS011;3540;53.242;10.408;2023-05-10T13:48:23;7.27;;;4.80;;
6999;SDS011;3540;53.242;10.408;2023-05-10T13:50:48;4.60;;;4.20;;
6999;SDS011;3540;53.242;10.408;2023-05-10T13:53:14;6.37;;;4.10;;
6999;SDS011;3540;53.242;10.408;2023-05-10T13:55:40;4.60;;;4.20;;
6999;SDS011;3540;53.242;10.408;2023-05-10T13:58:06;6.23;;;4.20;;
6999;SDS011;3540;53.242;10.408;2023-05-10T14:00:32;4.53;;;4.10;;
6999;SDS011;3540;53.242;10.408;2023-05-10T14:02:57;4.87;;;4.47;;
6999;SDS011;3540;53.242;10.408;2023-05-10T14:05:23;5.00;;;4.60;;
6999;SDS011;3540;53.242;10.408;2023-05-10T14:07:49;4.27;;;3.87;;
6999;SDS011;3540;53.242;10.408;2023-05-10T14:10:15;4.93;;;3.90;;
6999;SDS011;3540;53.242;10.408;2023-05-10T14:12:41;4.17;;;3.77;;
6999;SDS011;3540;53.242;10.408;2023-05-10T14:15:07;4.20;;;3.80;;
6999;SDS011;3540;53.242;10.408;2023-05-10T14:17:35;4.30;;;3.90;;
6999;SDS011;3540;53.242;10.408;2023-05-10T14:20:01;4.10;;;3.70;;
6999;SDS011;3540;53.242;10.408;2023-05-10T14:22:27;3.63;;;3.33;;
6999;SDS011;3540;53.242;10.408;2023-05-10T14:24:52;3.40;;;3.10;;
6999;SDS011;3540;53.242;10.408;2023-05-10T14:27:18;5.23;;;3.50;;
6999;SDS011;3540;53.242;10.408;2023-05-10T14:29:44;3.37;;;3.07;;
6999;SDS011;3540;53.242;10.408;2023-05-10T14:32:10;3.30;;;3.00;;
6999;SDS011;3540;53.242;10.408;2023-05-10T14:34:35;3.43;;;3.20;;
6999;SDS011;3540;53.242;10.408;2023-05-10T14:37:01;3.33;;;3.03;;
6999;SDS011;3540;53.242;10.408;2023-05-10T14:39:27;3.00;;;2.80;;
6999;SDS011;3540;53.242;10.408;2023-05-10T14:41:55;5.13;;;2.70;;
6999;SDS011;3540;53.242;10.408;2023-05-10T14:44:21;2.80;;;2.60;;
6999;SDS011;3540;53.242;10.408;2023-05-10T14:46:46;6.27;;;2.80;;
6999;SDS011;3540;53.242;10.408;2023-05-10T14:49:13;3.57;;;2.60;;
6999;SDS011;3540;53.242;10.408;2023-05-10T14:51:39;4.87;;;2.90;;
6999;SDS011;3540;53.242;10.408;2023-05-10T14:54:04;3.13;;;2.73;;
6999;SDS011;3540;53.242;10.408;2023-05-10T14:56:31;2.87;;;2.60;;
6999;SDS011;3540;53.242;10.408;2023-05-10T14:58:56;2.80;;;2.60;;
6999;SDS011;3540;53.242;10.408;2023-05-10T15:01:22;2.70;;;2.40;;
6999;SDS011;3540;53.242;10.408;2023-05-10T15:03:48;2.47;;;2.20;;
6999;SDS011;3540;53.242;10.408;2023-05-10T15:06:14;3.00;;;2.80;;
6999;SDS011;3540;53.242;10.408;2023-05-10T15:08:40;3.20;;;2.53;;
6999;SDS011;3540;53.242;10.408;2023-05-10T15:11:06;3.27;;;2.30;;
6999;SDS011;3540;53.242;10.408;2023-05-10T15:13:32;3.23;;;2.50;;
6999;SDS011;3540;53.242;10.408;2023-05-10T15:15:57;3.00;;;2.47;;
6999;SDS011;3540;53.242;10.408;2023-05-10T15:18:23;2.80;;;2.30;;
6999;SDS011;3540;53.242;10.408;2023-05-10T15:20:49;2.83;;;2.57;;
6999;SDS011;3540;53.242;10.408;2023-05-10T15:23:14;2.50;;;2.30;;
6999;SDS011;3540;53.242;10.408;2023-05-10T15:25:40;3.17;;;2.60;;
6999;SDS011;3540;53.242;10.408;2023-05-10T15:28:05;3.60;;;2.40;;
6999;SDS011;3540;53.242;10.408;2023-05-10T15:30:31;2.93;;;2.60;;
6999;SDS011;3540;53.242;10.408;2023-05-10T15:32:57;3.23;;;2.40;;
6999;SDS011;3540;53.242;10.408;2023-05-10T15:35:22;2.50;;;2.30;;
6999;SDS011;3540;53.242;10.408;2023-05-10T15:37:48;3.73;;;2.87;;